sensor_id;sensor_type;location;lat;lon;timestamp;P1;durP1;ratioP1;P2;durP2;ratioP2
12601;SDS011;30282;16.436;99.370;2023-07-13T00:01:38;11.90;;;3.10;;
12601;SDS011;30282;16.436;99.370;2023-07-13T00:04:08;13.30;;;4.20;;
12601;SDS011;30282;16.436;99.370;2023-07-13T00:06:38;22.63;;;10.20;;
12601;SDS011;30282;16.436;99.370;2023-07-13T00:09:12;9.93;;;5.37;;
12601;SDS011;30282;16.436;99.370;2023-07-13T00:11:42;9.63;;;3.60;;
12601;SDS011;30282;16.436;99.370;2023-07-13T00:14:13;16.73;;;4.20;;
12601;SDS011;30282;16.436;99.370;2023-07-13T00:16:43;10.73;;;3.73;;
12601;SDS011;30282;16.436;99.370;2023-07-13T00:19:12;14.03;;;3.27;;
12601;SDS011;30282;16.436;99.370;2023-07-13T00:21:42;13.67;;;3.43;;
12601;SDS011;30282;16.436;99.370;2023-07-13T00:24:14;10.27;;;3.00;;
12601;SDS011;30282;16.436;99.370;2023-07-13T00:26:49;16.17;;;3.10;;
12601;SDS011;30282;16.436;99.370;2023-07-13T00:29:20;15.70;;;3.23;;
12601;SDS011;30282;16.436;99.370;2023-07-13T00:31:52;14.60;;;3.67;;
12601;SDS011;30282;16.436;99.370;2023-07-13T00:34:24;10.20;;;3.20;;
12601;SDS011;30282;16.436;99.370;2023-07-13T00:36:53;7.23;;;3.00;;
12601;SDS011;30282;16.436;99.370;2023-07-13T00:39:24;5.70;;;2.87;;
12601;SDS011;30282;16.436;99.370;2023-07-13T00:41:54;14.73;;;3.20;;
12601;SDS011;30282;16.436;99.370;2023-07-13T00:44:23;26.47;;;4.33;;
12601;SDS011;30282;16.436;99.370;2023-07-13T00:46:53;9.90;;;2.70;;
12601;SDS011;30282;16.436;99.370;2023-07-13T00:49:24;4.60;;;2.10;;
12601;SDS011;30282;16.436;99.370;2023-07-13T00:51:55;11.07;;;2.40;;
12601;SDS011;30282;16.436;99.370;2023-07-13T00:54:29;7.63;;;2.50;;
12601;SDS011;30282;16.436;99.370;2023-07-13T00:57:01;8.50;;;2.50;;
12601;SDS011;30282;16.436;99.370;2023-07-13T00:59:33;7.80;;;2.70;;
12601;SDS011;30282;16.436;99.370;2023-07-13T01:02:04;7.73;;;2.50;;
12601;SDS011;30282;16.436;99.370;2023-07-13T01:04:33;27.63;;;4.00;;
12601;SDS011;30282;16.436;99.370;2023-07-13T01:07:04;51.03;;;4.50;;
12601;SDS011;30282;16.436;99.370;2023-07-13T01:09:36;12.23;;;3.23;;
12601;SDS011;30282;16.436;99.370;2023-07-13T01:12:06;12.47;;;3.37;;
12601;SDS011;30282;16.436;99.370;2023-07-13T01:14:36;8.20;;;2.47;;
12601;SDS011;30282;16.436;99.370;2023-07-13T01:17:05;10.37;;;2.50;;
12601;SDS011;30282;16.436;99.370;2023-07-13T01:19:37;5.97;;;2.40;;
12601;SDS011;30282;16.436;99.370;2023-07-13T01:22:10;7.20;;;2.10;;
12601;SDS011;30282;16.436;99.370;2023-07-13T01:24:41;7.70;;;2.03;;
12601;SDS011;30282;16.436;99.370;2023-07-13T01:27:11;15.10;;;2.20;;
12601;SDS011;30282;16.436;99.370;2023-07-13T01:29:42;15.37;;;2.20;;
12601;SDS011;30282;16.436;99.370;2023-07-13T01:32:14;8.13;;;1.87;;
12601;SDS011;30282;16.436;99.370;2023-07-13T01:34:49;7.90;;;1.73;;
12601;SDS011;30282;16.436;99.370;2023-07-13T01:37:21;9.27;;;2.27;;
12601;SDS011;30282;16.436;99.370;2023-07-13T01:59:35;15.97;;;2.10;;
12601;SDS011;30282;16.436;99.370;2023-07-13T02:02:05;9.83;;;2.17;;
12601;SDS011;30282;16.436;99.370;2023-07-13T02:04:34;7.60;;;1.93;;
12601;SDS011;30282;16.436;99.370;2023-07-13T02:07:04;7.73;;;2.37;;
12601;SDS011;30282;16.436;99.370;2023-07-13T02:09:33;7.90;;;1.93;;
12601;SDS011;30282;16.436;99.370;2023-07-13T02:12:03;8.57;;;2.00;;
12601;SDS011;30282;16.436;99.370;2023-07-13T02:14:33;13.10;;;2.10;;
12601;SDS011;30282;16.436;99.370;2023-07-13T02:17:04;8.97;;;2.20;;
12601;SDS011;30282;16.436;99.370;2023-07-13T02:19:34;6.80;;;2.00;;
12601;SDS011;30282;16.436;99.370;2023-07-13T02:22:03;11.87;;;3.10;;
12601;SDS011;30282;16.436;99.370;2023-07-13T02:24:33;8.23;;;1.83;;
12601;SDS011;30282;16.436;99.370;2023-07-13T02:27:02;13.60;;;2.00;;
12601;SDS011;30282;16.436;99.370;2023-07-13T02:29:32;5.10;;;1.50;;
12601;SDS011;30282;16.436;99.370;2023-07-13T02:32:03;9.57;;;2.10;;
12601;SDS011;30282;16.436;99.370;2023-07-13T02:34:33;5.20;;;1.40;;
12601;SDS011;30282;16.436;99.370;2023-07-13T02:37:02;3.93;;;1.20;;
12601;SDS011;30282;16.436;99.370;2023-07-13T02:39:32;13.67;;;1.90;;
12601;SDS011;30282;16.436;99.370;2023-07-13T02:42:01;13.77;;;3.10;;
12601;SDS011;30282;16.436;99.370;2023-07-13T02:44:30;4.70;;;1.40;;
12601;SDS011;30282;16.436;99.370;2023-07-13T02:47:00;7.00;;;1.43;;
12601;SDS011;30282;16.436;99.370;2023-07-13T02:49:33;3.97;;;1.40;;
12601;SDS011;30282;16.436;99.370;2023-07-13T02:52:02;5.13;;;1.13;;
12601;SDS011;30282;16.436;99.370;2023-07-13T02:54:35;5.80;;;1.97;;
12601;SDS011;30282;16.436;99.370;2023-07-13T02:57:05;7.23;;;1.50;;
12601;SDS011;30282;16.436;99.370;2023-07-13T02:59:34;6.17;;;1.27;;
12601;SDS011;30282;16.436;99.370;2023-07-13T03:02:06;7.23;;;1.40;;
12601;SDS011;30282;16.436;99.370;2023-07-13T03:04:35;8.27;;;1.03;;
12601;SDS011;30282;16.436;99.370;2023-07-13T03:07:07;8.10;;;1.40;;
12601;SDS011;30282;16.436;99.370;2023-07-13T03:09:39;4.60;;;1.10;;
12601;SDS011;30282;16.436;99.370;2023-07-13T03:12:21;4.87;;;1.27;;
12601;SDS011;30282;16.436;99.370;2023-07-13T03:14:50;5.60;;;1.17;;
12601;SDS011;30282;16.436;99.370;2023-07-13T03:17:21;4.60;;;1.50;;
12601;SDS011;30282;16.436;99.370;2023-07-13T03:19:51;4.10;;;1.10;;
12601;SDS011;30282;16.436;99.370;2023-07-13T03:22:20;6.20;;;1.23;;
12601;SDS011;30282;16.436;99.370;2023-07-13T03:24:49;27.23;;;2.80;;
12601;SDS011;30282;16.436;99.370;2023-07-13T03:27:18;6.30;;;1.50;;
12601;SDS011;30282;16.436;99.370;2023-07-13T03:29:48;5.73;;;1.07;;
12601;SDS011;30282;16.436;99.370;2023-07-13T03:32:17;9.77;;;1.40;;
12601;SDS011;30282;16.436;99.370;2023-07-13T03:34:48;10.10;;;5.50;;
12601;SDS011;30282;16.436;99.370;2023-07-13T03:37:18;9.63;;;1.83;;
12601;SDS011;30282;16.436;99.370;2023-07-13T03:39:47;3.13;;;1.00;;
12601;SDS011;30282;16.436;99.370;2023-07-13T03:42:16;3.90;;;1.27;;
12601;SDS011;30282;16.436;99.370;2023-07-13T03:44:45;4.80;;;1.40;;
12601;SDS011;30282;16.436;99.370;2023-07-13T03:47:18;6.07;;;1.50;;
12601;SDS011;30282;16.436;99.370;2023-07-13T03:49:49;7.07;;;1.53;;
12601;SDS011;30282;16.436;99.370;2023-07-13T03:52:19;3.70;;;1.03;;
12601;SDS011;30282;16.436;99.370;2023-07-13T03:54:48;5.03;;;1.20;;
12601;SDS011;30282;16.436;99.370;2023-07-13T03:57:18;4.90;;;1.10;;
12601;SDS011;30282;16.436;99.370;2023-07-13T03:59:47;5.87;;;1.30;;
12601;SDS011;30282;16.436;99.370;2023-07-13T04:02:17;4.50;;;1.33;;
12601;SDS011;30282;16.436;99.370;2023-07-13T04:04:48;6.70;;;1.30;;
12601;SDS011;30282;16.436;99.370;2023-07-13T04:07:17;9.60;;;1.27;;
12601;SDS011;30282;16.436;99.370;2023-07-13T04:09:46;7.20;;;1.20;;
12601;SDS011;30282;16.436;99.370;2023-07-13T04:12:15;6.20;;;1.50;;
12601;SDS011;30282;16.436;99.370;2023-07-13T04:14:45;4.60;;;1.23;;
12601;SDS011;30282;16.436;99.370;2023-07-13T04:17:14;8.87;;;3.83;;
12601;SDS011;30282;16.436;99.370;2023-07-13T04:19:43;4.57;;;1.57;;
12601;SDS011;30282;16.436;99.370;2023-07-13T04:22:14;3.60;;;1.40;;
12601;SDS011;30282;16.436;99.370;2023-07-13T04:24:43;5.00;;;1.37;;
12601;SDS011;30282;16.436;99.370;2023-07-13T04:27:13;4.13;;;1.33;;
12601;SDS011;30282;16.436;99.370;2023-07-13T04:29:42;5.40;;;1.40;;
12601;SDS011;30282;16.436;99.370;2023-07-13T04:32:13;4.90;;;1.10;;
12601;SDS011;30282;16.436;99.370;2023-07-13T04:34:45;3.97;;;1.10;;
12601;SDS011;30282;16.436;99.370;2023-07-13T04:37:20;4.40;;;1.10;;
12601;SDS011;30282;16.436;99.370;2023-07-13T04:39:49;6.97;;;1.10;;
12601;SDS011;30282;16.436;99.370;2023-07-13T04:42:19;5.53;;;1.37;;
12601;SDS011;30282;16.436;99.370;2023-07-13T04:44:48;4.53;;;1.07;;
12601;SDS011;30282;16.436;99.370;2023-07-13T04:47:18;6.20;;;1.50;;
12601;SDS011;30282;16.436;99.370;2023-07-13T04:49:47;8.17;;;1.70;;
12601;SDS011;30282;16.436;99.370;2023-07-13T04:52:16;5.47;;;1.40;;
12601;SDS011;30282;16.436;99.370;2023-07-13T04:54:47;8.63;;;1.87;;
12601;SDS011;30282;16.436;99.370;2023-07-13T04:57:16;4.47;;;1.47;;
12601;SDS011;30282;16.436;99.370;2023-07-13T04:59:46;8.13;;;1.30;;
12601;SDS011;30282;16.436;99.370;2023-07-13T05:02:15;3.07;;;0.93;;
12601;SDS011;30282;16.436;99.370;2023-07-13T05:04:46;5.63;;;1.27;;
12601;SDS011;30282;16.436;99.370;2023-07-13T05:07:16;5.20;;;1.20;;
12601;SDS011;30282;16.436;99.370;2023-07-13T05:09:45;5.00;;;1.20;;
12601;SDS011;30282;16.436;99.370;2023-07-13T05:12:16;5.20;;;1.37;;
12601;SDS011;30282;16.436;99.370;2023-07-13T05:14:48;7.33;;;1.30;;
12601;SDS011;30282;16.436;99.370;2023-07-13T05:17:17;6.60;;;1.70;;
12601;SDS011;30282;16.436;99.370;2023-07-13T05:19:46;5.10;;;1.40;;
12601;SDS011;30282;16.436;99.370;2023-07-13T05:22:16;4.40;;;1.20;;
12601;SDS011;30282;16.436;99.370;2023-07-13T05:24:45;8.70;;;1.63;;
12601;SDS011;30282;16.436;99.370;2023-07-13T05:27:16;5.40;;;1.57;;
12601;SDS011;30282;16.436;99.370;2023-07-13T05:29:45;6.67;;;1.27;;
12601;SDS011;30282;16.436;99.370;2023-07-13T05:32:14;5.23;;;1.30;;
12601;SDS011;30282;16.436;99.370;2023-07-13T05:34:43;9.20;;;1.43;;
12601;SDS011;30282;16.436;99.370;2023-07-13T05:37:15;4.57;;;1.20;;
12601;SDS011;30282;16.436;99.370;2023-07-13T05:39:45;3.53;;;1.17;;
12601;SDS011;30282;16.436;99.370;2023-07-13T05:42:16;4.13;;;1.27;;
12601;SDS011;30282;16.436;99.370;2023-07-13T05:44:45;4.17;;;1.20;;
12601;SDS011;30282;16.436;99.370;2023-07-13T05:47:15;5.20;;;1.90;;
12601;SDS011;30282;16.436;99.370;2023-07-13T05:49:44;4.57;;;1.30;;
12601;SDS011;30282;16.436;99.370;2023-07-13T05:52:13;5.53;;;1.13;;
12601;SDS011;30282;16.436;99.370;2023-07-13T05:54:43;4.40;;;1.27;;
12601;SDS011;30282;16.436;99.370;2023-07-13T05:57:21;5.23;;;1.40;;
12601;SDS011;30282;16.436;99.370;2023-07-13T05:59:50;3.73;;;1.03;;
12601;SDS011;30282;16.436;99.370;2023-07-13T06:02:19;5.80;;;1.20;;
12601;SDS011;30282;16.436;99.370;2023-07-13T06:04:53;3.77;;;1.20;;
12601;SDS011;30282;16.436;99.370;2023-07-13T06:07:22;10.30;;;1.40;;
12601;SDS011;30282;16.436;99.370;2023-07-13T06:09:52;5.43;;;1.30;;
12601;SDS011;30282;16.436;99.370;2023-07-13T06:12:23;5.77;;;1.60;;
12601;SDS011;30282;16.436;99.370;2023-07-13T06:14:52;6.63;;;1.17;;
12601;SDS011;30282;16.436;99.370;2023-07-13T06:17:24;4.53;;;1.20;;
12601;SDS011;30282;16.436;99.370;2023-07-13T06:19:53;7.63;;;1.30;;
12601;SDS011;30282;16.436;99.370;2023-07-13T06:22:26;5.03;;;1.40;;
12601;SDS011;30282;16.436;99.370;2023-07-13T06:24:56;7.37;;;2.00;;
12601;SDS011;30282;16.436;99.370;2023-07-13T06:27:30;8.60;;;1.90;;
12601;SDS011;30282;16.436;99.370;2023-07-13T06:30:02;7.30;;;2.20;;
12601;SDS011;30282;16.436;99.370;2023-07-13T06:32:31;4.40;;;1.67;;
12601;SDS011;30282;16.436;99.370;2023-07-13T06:35:01;5.47;;;1.97;;
12601;SDS011;30282;16.436;99.370;2023-07-13T06:37:30;7.50;;;1.70;;
12601;SDS011;30282;16.436;99.370;2023-07-13T06:39:59;5.77;;;1.47;;
12601;SDS011;30282;16.436;99.370;2023-07-13T06:42:31;13.23;;;2.03;;
12601;SDS011;30282;16.436;99.370;2023-07-13T06:45:00;8.53;;;2.10;;
12601;SDS011;30282;16.436;99.370;2023-07-13T06:47:29;5.40;;;1.60;;
12601;SDS011;30282;16.436;99.370;2023-07-13T06:49:59;6.90;;;1.73;;
12601;SDS011;30282;16.436;99.370;2023-07-13T06:52:28;6.00;;;2.37;;
12601;SDS011;30282;16.436;99.370;2023-07-13T06:54:57;8.00;;;1.63;;
12601;SDS011;30282;16.436;99.370;2023-07-13T06:57:27;4.73;;;1.73;;
12601;SDS011;30282;16.436;99.370;2023-07-13T06:59:58;6.10;;;1.80;;
12601;SDS011;30282;16.436;99.370;2023-07-13T07:02:29;5.20;;;2.10;;
12601;SDS011;30282;16.436;99.370;2023-07-13T07:05:00;6.60;;;1.60;;
12601;SDS011;30282;16.436;99.370;2023-07-13T07:07:29;6.40;;;2.73;;
12601;SDS011;30282;16.436;99.370;2023-07-13T07:09:58;5.40;;;1.80;;
12601;SDS011;30282;16.436;99.370;2023-07-13T07:12:28;6.07;;;1.83;;
12601;SDS011;30282;16.436;99.370;2023-07-13T07:15:01;5.83;;;2.50;;
12601;SDS011;30282;16.436;99.370;2023-07-13T07:17:31;6.20;;;2.03;;
12601;SDS011;30282;16.436;99.370;2023-07-13T07:20:00;13.53;;;1.90;;
12601;SDS011;30282;16.436;99.370;2023-07-13T07:22:30;7.10;;;2.10;;
12601;SDS011;30282;16.436;99.370;2023-07-13T07:25:02;4.10;;;1.70;;
12601;SDS011;30282;16.436;99.370;2023-07-13T07:27:32;5.70;;;2.17;;
12601;SDS011;30282;16.436;99.370;2023-07-13T07:30:03;5.67;;;2.73;;
12601;SDS011;30282;16.436;99.370;2023-07-13T07:32:33;8.50;;;1.80;;
12601;SDS011;30282;16.436;99.370;2023-07-13T07:35:05;5.20;;;1.87;;
12601;SDS011;30282;16.436;99.370;2023-07-13T07:37:34;4.20;;;1.40;;
12601;SDS011;30282;16.436;99.370;2023-07-13T07:40:04;4.90;;;2.00;;
12601;SDS011;30282;16.436;99.370;2023-07-13T07:42:35;6.83;;;2.20;;
12601;SDS011;30282;16.436;99.370;2023-07-13T07:45:06;5.73;;;1.63;;
12601;SDS011;30282;16.436;99.370;2023-07-13T07:47:37;3.40;;;1.70;;
12601;SDS011;30282;16.436;99.370;2023-07-13T07:50:07;4.47;;;1.40;;
12601;SDS011;30282;16.436;99.370;2023-07-13T07:52:41;4.60;;;1.83;;
12601;SDS011;30282;16.436;99.370;2023-07-13T07:55:11;6.90;;;1.80;;
12601;SDS011;30282;16.436;99.370;2023-07-13T07:57:40;4.30;;;1.73;;
12601;SDS011;30282;16.436;99.370;2023-07-13T08:00:12;7.30;;;1.50;;
12601;SDS011;30282;16.436;99.370;2023-07-13T08:02:42;6.03;;;1.90;;
12601;SDS011;30282;16.436;99.370;2023-07-13T08:05:11;6.23;;;1.43;;
12601;SDS011;30282;16.436;99.370;2023-07-13T08:07:40;7.03;;;1.43;;
12601;SDS011;30282;16.436;99.370;2023-07-13T08:10:09;4.80;;;1.50;;
12601;SDS011;30282;16.436;99.370;2023-07-13T08:12:39;5.20;;;1.80;;
12601;SDS011;30282;16.436;99.370;2023-07-13T08:15:10;5.63;;;1.93;;
12601;SDS011;30282;16.436;99.370;2023-07-13T08:17:42;4.00;;;1.40;;
12601;SDS011;30282;16.436;99.370;2023-07-13T08:20:12;6.33;;;1.83;;
12601;SDS011;30282;16.436;99.370;2023-07-13T08:22:41;10.10;;;1.90;;
12601;SDS011;30282;16.436;99.370;2023-07-13T08:25:10;7.33;;;2.23;;
12601;SDS011;30282;16.436;99.370;2023-07-13T08:27:39;5.80;;;2.00;;
12601;SDS011;30282;16.436;99.370;2023-07-13T08:30:08;6.27;;;1.90;;
12601;SDS011;30282;16.436;99.370;2023-07-13T08:32:40;4.80;;;2.23;;
12601;SDS011;30282;16.436;99.370;2023-07-13T08:35:09;5.57;;;1.90;;
12601;SDS011;30282;16.436;99.370;2023-07-13T08:37:39;5.63;;;1.87;;
12601;SDS011;30282;16.436;99.370;2023-07-13T08:40:08;8.73;;;2.00;;
12601;SDS011;30282;16.436;99.370;2023-07-13T08:42:44;8.80;;;2.20;;
12601;SDS011;30282;16.436;99.370;2023-07-13T08:45:20;5.77;;;2.20;;
12601;SDS011;30282;16.436;99.370;2023-07-13T08:47:53;5.90;;;2.23;;
12601;SDS011;30282;16.436;99.370;2023-07-13T08:50:27;4.07;;;1.40;;
12601;SDS011;30282;16.436;99.370;2023-07-13T08:53:01;7.30;;;1.83;;
12601;SDS011;30282;16.436;99.370;2023-07-13T08:55:33;5.23;;;1.70;;
12601;SDS011;30282;16.436;99.370;2023-07-13T08:58:06;5.10;;;1.57;;
12601;SDS011;30282;16.436;99.370;2023-07-13T09:00:42;7.30;;;2.27;;
12601;SDS011;30282;16.436;99.370;2023-07-13T09:03:20;5.03;;;1.77;;
12601;SDS011;30282;16.436;99.370;2023-07-13T09:05:54;6.40;;;2.20;;
12601;SDS011;30282;16.436;99.370;2023-07-13T09:08:29;4.60;;;1.93;;
12601;SDS011;30282;16.436;99.370;2023-07-13T09:11:16;8.70;;;2.00;;
12601;SDS011;30282;16.436;99.370;2023-07-13T09:13:58;5.60;;;1.80;;
12601;SDS011;30282;16.436;99.370;2023-07-13T09:16:35;4.83;;;1.60;;
12601;SDS011;30282;16.436;99.370;2023-07-13T09:19:08;12.27;;;2.13;;
12601;SDS011;30282;16.436;99.370;2023-07-13T09:21:48;10.77;;;3.00;;
12601;SDS011;30282;16.436;99.370;2023-07-13T09:24:31;16.20;;;5.57;;
12601;SDS011;30282;16.436;99.370;2023-07-13T09:27:13;6.30;;;2.37;;
12601;SDS011;30282;16.436;99.370;2023-07-13T09:29:49;6.53;;;2.10;;
12601;SDS011;30282;16.436;99.370;2023-07-13T09:32:25;8.30;;;1.83;;
12601;SDS011;30282;16.436;99.370;2023-07-13T09:34:59;6.40;;;2.20;;
12601;SDS011;30282;16.436;99.370;2023-07-13T09:37:30;4.50;;;1.67;;
12601;SDS011;30282;16.436;99.370;2023-07-13T09:40:02;5.50;;;1.37;;
12601;SDS011;30282;16.436;99.370;2023-07-13T09:42:35;6.43;;;1.33;;
12601;SDS011;30282;16.436;99.370;2023-07-13T09:45:04;4.60;;;1.27;;
12601;SDS011;30282;16.436;99.370;2023-07-13T09:47:38;6.30;;;1.33;;
12601;SDS011;30282;16.436;99.370;2023-07-13T09:50:14;14.60;;;1.30;;
12601;SDS011;30282;16.436;99.370;2023-07-13T09:52:44;6.37;;;1.43;;
12601;SDS011;30282;16.436;99.370;2023-07-13T09:55:24;4.50;;;1.97;;
12601;SDS011;30282;16.436;99.370;2023-07-13T09:57:54;10.80;;;1.20;;
12601;SDS011;30282;16.436;99.370;2023-07-13T10:00:25;6.60;;;1.73;;
12601;SDS011;30282;16.436;99.370;2023-07-13T10:03:02;7.03;;;1.70;;
12601;SDS011;30282;16.436;99.370;2023-07-13T10:05:41;6.80;;;1.90;;
12601;SDS011;30282;16.436;99.370;2023-07-13T10:08:21;5.47;;;2.20;;
12601;SDS011;30282;16.436;99.370;2023-07-13T10:11:00;10.43;;;3.07;;
12601;SDS011;30282;16.436;99.370;2023-07-13T10:13:36;5.50;;;1.60;;
12601;SDS011;30282;16.436;99.370;2023-07-13T10:16:08;4.07;;;1.00;;
12601;SDS011;30282;16.436;99.370;2023-07-13T10:18:39;5.90;;;1.77;;
12601;SDS011;30282;16.436;99.370;2023-07-13T10:21:15;6.20;;;2.07;;
12601;SDS011;30282;16.436;99.370;2023-07-13T10:23:49;4.40;;;1.60;;
12601;SDS011;30282;16.436;99.370;2023-07-13T10:26:25;5.80;;;1.30;;
12601;SDS011;30282;16.436;99.370;2023-07-13T10:28:59;4.93;;;2.27;;
12601;SDS011;30282;16.436;99.370;2023-07-13T10:31:34;6.00;;;1.77;;
12601;SDS011;30282;16.436;99.370;2023-07-13T10:34:07;7.03;;;1.70;;
12601;SDS011;30282;16.436;99.370;2023-07-13T10:36:43;17.93;;;1.90;;
12601;SDS011;30282;16.436;99.370;2023-07-13T10:39:15;6.47;;;2.10;;
12601;SDS011;30282;16.436;99.370;2023-07-13T10:41:46;4.60;;;1.40;;
12601;SDS011;30282;16.436;99.370;2023-07-13T10:44:21;4.83;;;2.13;;
12601;SDS011;30282;16.436;99.370;2023-07-13T10:46:55;4.40;;;1.83;;
12601;SDS011;30282;16.436;99.370;2023-07-13T10:49:29;7.33;;;1.90;;
12601;SDS011;30282;16.436;99.370;2023-07-13T10:52:03;10.50;;;2.63;;
12601;SDS011;30282;16.436;99.370;2023-07-13T10:54:35;10.77;;;2.83;;
12601;SDS011;30282;16.436;99.370;2023-07-13T10:57:10;16.63;;;3.77;;
12601;SDS011;30282;16.436;99.370;2023-07-13T10:59:47;8.97;;;1.73;;
12601;SDS011;30282;16.436;99.370;2023-07-13T11:02:22;5.07;;;1.90;;
12601;SDS011;30282;16.436;99.370;2023-07-13T11:04:57;18.40;;;2.73;;
12601;SDS011;30282;16.436;99.370;2023-07-13T11:07:28;7.73;;;2.03;;
12601;SDS011;30282;16.436;99.370;2023-07-13T11:10:03;13.33;;;2.13;;
12601;SDS011;30282;16.436;99.370;2023-07-13T11:15:32;9.50;;;1.83;;
12601;SDS011;30282;16.436;99.370;2023-07-13T11:18:21;9.07;;;1.77;;
12601;SDS011;30282;16.436;99.370;2023-07-13T11:20:51;7.00;;;1.40;;
12601;SDS011;30282;16.436;99.370;2023-07-13T11:23:43;7.60;;;1.50;;
12601;SDS011;30282;16.436;99.370;2023-07-13T11:29:24;9.63;;;2.47;;
12601;SDS011;30282;16.436;99.370;2023-07-13T11:32:01;6.97;;;1.57;;
12601;SDS011;30282;16.436;99.370;2023-07-13T11:34:49;8.23;;;1.83;;
12601;SDS011;30282;16.436;99.370;2023-07-13T11:37:19;12.40;;;2.50;;
12601;SDS011;30282;16.436;99.370;2023-07-13T11:39:51;12.67;;;2.50;;
12601;SDS011;30282;16.436;99.370;2023-07-13T11:42:21;11.07;;;2.00;;
12601;SDS011;30282;16.436;99.370;2023-07-13T11:44:50;10.03;;;2.20;;
12601;SDS011;30282;16.436;99.370;2023-07-13T11:47:22;8.80;;;1.80;;
12601;SDS011;30282;16.436;99.370;2023-07-13T11:49:54;8.77;;;1.87;;
12601;SDS011;30282;16.436;99.370;2023-07-13T11:52:27;10.73;;;2.43;;
12601;SDS011;30282;16.436;99.370;2023-07-13T11:55:03;8.77;;;2.20;;
12601;SDS011;30282;16.436;99.370;2023-07-13T11:57:42;6.13;;;2.20;;
12601;SDS011;30282;16.436;99.370;2023-07-13T12:00:17;7.03;;;1.63;;
12601;SDS011;30282;16.436;99.370;2023-07-13T12:02:50;13.23;;;1.97;;
12601;SDS011;30282;16.436;99.370;2023-07-13T12:05:20;9.67;;;1.50;;
12601;SDS011;30282;16.436;99.370;2023-07-13T12:07:50;8.70;;;1.53;;
12601;SDS011;30282;16.436;99.370;2023-07-13T12:10:24;10.77;;;1.83;;
12601;SDS011;30282;16.436;99.370;2023-07-13T12:12:58;6.27;;;1.70;;
12601;SDS011;30282;16.436;99.370;2023-07-13T12:15:30;6.20;;;1.40;;
12601;SDS011;30282;16.436;99.370;2023-07-13T12:18:09;11.70;;;2.20;;
12601;SDS011;30282;16.436;99.370;2023-07-13T12:20:41;17.23;;;2.17;;
12601;SDS011;30282;16.436;99.370;2023-07-13T12:23:14;9.17;;;1.70;;
12601;SDS011;30282;16.436;99.370;2023-07-13T12:25:52;12.53;;;1.37;;
12601;SDS011;30282;16.436;99.370;2023-07-13T12:28:22;8.57;;;1.80;;
12601;SDS011;30282;16.436;99.370;2023-07-13T12:30:59;16.63;;;2.23;;
12601;SDS011;30282;16.436;99.370;2023-07-13T12:33:29;7.23;;;1.33;;
12601;SDS011;30282;16.436;99.370;2023-07-13T12:36:02;9.43;;;1.67;;
12601;SDS011;30282;16.436;99.370;2023-07-13T12:38:34;5.30;;;1.47;;
12601;SDS011;30282;16.436;99.370;2023-07-13T12:41:05;10.87;;;1.60;;
12601;SDS011;30282;16.436;99.370;2023-07-13T12:43:40;6.73;;;1.80;;
12601;SDS011;30282;16.436;99.370;2023-07-13T12:46:17;7.07;;;1.40;;
12601;SDS011;30282;16.436;99.370;2023-07-13T12:48:48;4.43;;;1.10;;
12601;SDS011;30282;16.436;99.370;2023-07-13T12:51:20;7.80;;;1.47;;
12601;SDS011;30282;16.436;99.370;2023-07-13T12:53:50;5.40;;;1.27;;
12601;SDS011;30282;16.436;99.370;2023-07-13T12:56:27;3.83;;;1.23;;
12601;SDS011;30282;16.436;99.370;2023-07-13T12:58:58;10.07;;;1.30;;
12601;SDS011;30282;16.436;99.370;2023-07-13T13:01:31;10.47;;;1.60;;
12601;SDS011;30282;16.436;99.370;2023-07-13T13:04:02;6.93;;;1.83;;
12601;SDS011;30282;16.436;99.370;2023-07-13T13:06:34;10.20;;;2.03;;
12601;SDS011;30282;16.436;99.370;2023-07-13T13:09:03;8.37;;;1.90;;
12601;SDS011;30282;16.436;99.370;2023-07-13T13:11:39;6.60;;;2.00;;
12601;SDS011;30282;16.436;99.370;2023-07-13T13:14:08;4.50;;;1.63;;
12601;SDS011;30282;16.436;99.370;2023-07-13T13:16:39;4.50;;;1.50;;
12601;SDS011;30282;16.436;99.370;2023-07-13T13:19:17;6.43;;;1.40;;
12601;SDS011;30282;16.436;99.370;2023-07-13T13:21:48;4.67;;;1.30;;
12601;SDS011;30282;16.436;99.370;2023-07-13T13:24:19;3.77;;;1.20;;
12601;SDS011;30282;16.436;99.370;2023-07-13T13:26:51;5.47;;;1.47;;
12601;SDS011;30282;16.436;99.370;2023-07-13T13:29:23;7.40;;;1.30;;
12601;SDS011;30282;16.436;99.370;2023-07-13T13:31:52;3.43;;;1.00;;
12601;SDS011;30282;16.436;99.370;2023-07-13T13:34:22;3.53;;;1.13;;
12601;SDS011;30282;16.436;99.370;2023-07-13T13:36:52;3.10;;;0.80;;
12601;SDS011;30282;16.436;99.370;2023-07-13T13:39:23;3.80;;;1.00;;
12601;SDS011;30282;16.436;99.370;2023-07-13T13:41:54;3.60;;;1.27;;
12601;SDS011;30282;16.436;99.370;2023-07-13T13:44:23;5.37;;;1.30;;
12601;SDS011;30282;16.436;99.370;2023-07-13T13:46:53;5.90;;;1.40;;
12601;SDS011;30282;16.436;99.370;2023-07-13T13:49:26;6.43;;;1.27;;
12601;SDS011;30282;16.436;99.370;2023-07-13T13:51:55;9.90;;;1.93;;
12601;SDS011;30282;16.436;99.370;2023-07-13T13:54:25;4.73;;;1.73;;
12601;SDS011;30282;16.436;99.370;2023-07-13T13:56:56;5.73;;;1.43;;
12601;SDS011;30282;16.436;99.370;2023-07-13T13:59:26;7.43;;;1.67;;
12601;SDS011;30282;16.436;99.370;2023-07-13T14:01:55;9.03;;;1.90;;
12601;SDS011;30282;16.436;99.370;2023-07-13T14:04:25;11.80;;;1.97;;
12601;SDS011;30282;16.436;99.370;2023-07-13T14:06:55;5.67;;;1.70;;
12601;SDS011;30282;16.436;99.370;2023-07-13T14:09:24;8.33;;;1.90;;
12601;SDS011;30282;16.436;99.370;2023-07-13T14:11:53;20.93;;;2.00;;
12601;SDS011;30282;16.436;99.370;2023-07-13T14:14:25;6.57;;;2.13;;
12601;SDS011;30282;16.436;99.370;2023-07-13T14:16:55;9.33;;;2.00;;
12601;SDS011;30282;16.436;99.370;2023-07-13T14:19:25;4.60;;;1.80;;
12601;SDS011;30282;16.436;99.370;2023-07-13T14:21:57;6.67;;;1.80;;
12601;SDS011;30282;16.436;99.370;2023-07-13T14:24:26;7.03;;;1.50;;
12601;SDS011;30282;16.436;99.370;2023-07-13T14:26:57;3.83;;;1.20;;
12601;SDS011;30282;16.436;99.370;2023-07-13T14:29:27;7.73;;;1.33;;
12601;SDS011;30282;16.436;99.370;2023-07-13T14:31:59;10.43;;;1.23;;
12601;SDS011;30282;16.436;99.370;2023-07-13T14:34:29;6.07;;;1.50;;
12601;SDS011;30282;16.436;99.370;2023-07-13T14:36:58;10.70;;;1.43;;
12601;SDS011;30282;16.436;99.370;2023-07-13T14:39:30;7.87;;;1.27;;
12601;SDS011;30282;16.436;99.370;2023-07-13T14:42:04;4.93;;;1.50;;
12601;SDS011;30282;16.436;99.370;2023-07-13T14:44:33;4.83;;;1.60;;
12601;SDS011;30282;16.436;99.370;2023-07-13T14:47:03;5.53;;;1.30;;
12601;SDS011;30282;16.436;99.370;2023-07-13T14:49:35;6.33;;;1.97;;
12601;SDS011;30282;16.436;99.370;2023-07-13T14:52:09;8.30;;;2.00;;
12601;SDS011;30282;16.436;99.370;2023-07-13T14:54:44;10.83;;;2.00;;
12601;SDS011;30282;16.436;99.370;2023-07-13T14:57:19;5.30;;;2.00;;
12601;SDS011;30282;16.436;99.370;2023-07-13T14:59:57;6.30;;;2.30;;
12601;SDS011;30282;16.436;99.370;2023-07-13T15:02:32;6.87;;;2.40;;
12601;SDS011;30282;16.436;99.370;2023-07-13T15:05:08;5.00;;;2.40;;
12601;SDS011;30282;16.436;99.370;2023-07-13T15:07:43;8.67;;;2.70;;
12601;SDS011;30282;16.436;99.370;2023-07-13T15:10:14;9.03;;;1.90;;
12601;SDS011;30282;16.436;99.370;2023-07-13T15:12:47;6.40;;;1.80;;
12601;SDS011;30282;16.436;99.370;2023-07-13T15:15:16;6.67;;;2.03;;
12601;SDS011;30282;16.436;99.370;2023-07-13T15:17:48;5.53;;;1.87;;
12601;SDS011;30282;16.436;99.370;2023-07-13T15:20:19;5.90;;;1.73;;
12601;SDS011;30282;16.436;99.370;2023-07-13T15:22:54;6.20;;;2.33;;